KROC/ROC METAR and TAF weather

Enter ICAO airport designator
Station Type Date Time Source
KROC METAR 2021/05/11 22:54 UTC NOAA

KROC 112254Z 26015G20KT 10SM FEW015 BKN040 BKN080 09/02 A3011 RMK AO2 SLP202 T00890017 $


Station Type Date Time Source
KROC Decoded METAR 2021/05/11 22:54 UTC NOAA

GREATER ROCHESTER INTERNATIONAL , NY, United States (KROC) 43-07N 077-41W 178M
May 11, 2021 - 06:54 PM EDT / 2021.05.11 2254 UTC
Wind: from the W (260 degrees) at 17 MPH (15 KT) gusting to 23 MPH (20 KT):0
Visibility: 10 mile(s):0
Sky conditions: mostly cloudy
Temperature: 48.0 F (8.9 C)
Dew Point: 35.1 F (1.7 C)
Relative Humidity: 60%
Pressure (altimeter): 30.11 in. Hg (1019 hPa)
ob: KROC 112254Z 26015G20KT 10SM FEW015 BKN040 BKN080 09/02 A3011 RMK AO2 SLP202 T00890017
cycle: 23

Station Type Date Time Source
KROC TAF 2021/05/11 22:39 UTC NOAA

TAF
AMD KROC 112136Z 1122/1218 27014G24KT P6SM SCT035 BKN050
FM120200 27012G20KT P6SM VCSH SCT015 BKN025
FM120700 27012KT P6SM SCT035
FM121500 30012G18KT P6SM FEW250

Example: see airport list